Huizhou, China
Current Conditions -  °F | °C
As of 1:00 AM on Saturday 25 Oct 2014 (Local Time) from ZGSZ Reporting Station
Clear Clear  
Wind Chill: 73°   Ceiling: Unl
Heat Index: 73°   Visibility: 4mi
Dew Point: 68°   Wind: 4mph
Humidity: 83%   Direction: 80°E
Pressure: 30"   Gusts: NA
Location:  23.08°N, 114.4°E
Report Text: ZGSZ 241700Z 08002MPS 7000 NSC 23/20 Q1016 NOSIG
Loading
Personal Weather Stations






























Interactive Weather Map
Tropical Storm Tracking
New forecast layout! Learn more

10-Day Weather Forecast

Advertisements
Track Severe Weather on mobile